sensor_id;sensor_type;location;lat;lon;timestamp;P1;durP1;ratioP1;P2;durP2;ratioP2
22191;SDS011;11261;52.456;10.850;2022-12-07T00:01:17;21.13;;;10.13;;
22191;SDS011;11261;52.456;10.850;2022-12-07T00:03:48;26.75;;;11.82;;
22191;SDS011;11261;52.456;10.850;2022-12-07T00:06:17;19.67;;;10.73;;
22191;SDS011;11261;52.456;10.850;2022-12-07T00:08:47;15.63;;;8.63;;
22191;SDS011;11261;52.456;10.850;2022-12-07T00:11:16;16.73;;;8.07;;
22191;SDS011;11261;52.456;10.850;2022-12-07T00:13:46;21.02;;;9.95;;
22191;SDS011;11261;52.456;10.850;2022-12-07T00:16:15;21.20;;;9.20;;
22191;SDS011;11261;52.456;10.850;2022-12-07T00:18:45;19.20;;;10.13;;
22191;SDS011;11261;52.456;10.850;2022-12-07T00:21:14;19.13;;;10.23;;
22191;SDS011;11261;52.456;10.850;2022-12-07T00:23:44;21.50;;;10.85;;
22191;SDS011;11261;52.456;10.850;2022-12-07T00:26:15;21.70;;;10.73;;
22191;SDS011;11261;52.456;10.850;2022-12-07T00:28:45;20.45;;;10.93;;
22191;SDS011;11261;52.456;10.850;2022-12-07T00:31:14;14.32;;;8.57;;
22191;SDS011;11261;52.456;10.850;2022-12-07T00:33:44;9.23;;;5.25;;
22191;SDS011;11261;52.456;10.850;2022-12-07T00:36:13;14.90;;;8.88;;
22191;SDS011;11261;52.456;10.850;2022-12-07T00:38:50;15.48;;;8.68;;
22191;SDS011;11261;52.456;10.850;2022-12-07T00:41:20;18.00;;;9.30;;
22191;SDS011;11261;52.456;10.850;2022-12-07T00:43:49;15.68;;;8.82;;
22191;SDS011;11261;52.456;10.850;2022-12-07T00:46:19;18.00;;;8.10;;
22191;SDS011;11261;52.456;10.850;2022-12-07T00:48:48;19.77;;;9.63;;
22191;SDS011;11261;52.456;10.850;2022-12-07T00:51:17;18.75;;;8.45;;
22191;SDS011;11261;52.456;10.850;2022-12-07T00:53:47;19.10;;;8.68;;
22191;SDS011;11261;52.456;10.850;2022-12-07T00:56:16;13.73;;;6.25;;
22191;SDS011;11261;52.456;10.850;2022-12-07T00:58:51;22.98;;;10.23;;
22191;SDS011;11261;52.456;10.850;2022-12-07T01:01:20;4.22;;;3.17;;
22191;SDS011;11261;52.456;10.850;2022-12-07T01:03:48;22.42;;;8.82;;
22191;SDS011;11261;52.456;10.850;2022-12-07T01:06:18;14.20;;;6.97;;
22191;SDS011;11261;52.456;10.850;2022-12-07T01:08:47;18.05;;;9.57;;
22191;SDS011;11261;52.456;10.850;2022-12-07T01:11:16;16.95;;;7.45;;
22191;SDS011;11261;52.456;10.850;2022-12-07T01:13:46;11.55;;;6.00;;
22191;SDS011;11261;52.456;10.850;2022-12-07T01:16:18;18.40;;;8.63;;
22191;SDS011;11261;52.456;10.850;2022-12-07T01:18:48;21.00;;;10.73;;
22191;SDS011;11261;52.456;10.850;2022-12-07T01:21:18;24.85;;;10.38;;
22191;SDS011;11261;52.456;10.850;2022-12-07T01:23:48;6.90;;;3.75;;
22191;SDS011;11261;52.456;10.850;2022-12-07T01:26:17;14.15;;;6.55;;
22191;SDS011;11261;52.456;10.850;2022-12-07T01:28:47;27.95;;;7.85;;
22191;SDS011;11261;52.456;10.850;2022-12-07T01:31:18;20.95;;;9.98;;
22191;SDS011;11261;52.456;10.850;2022-12-07T01:33:48;19.30;;;9.93;;
22191;SDS011;11261;52.456;10.850;2022-12-07T01:36:18;25.80;;;10.55;;
22191;SDS011;11261;52.456;10.850;2022-12-07T01:38:48;10.88;;;5.07;;
22191;SDS011;11261;52.456;10.850;2022-12-07T01:41:19;12.57;;;7.15;;
22191;SDS011;11261;52.456;10.850;2022-12-07T01:46:38;14.50;;;5.97;;
22191;SDS011;11261;52.456;10.850;2022-12-07T01:49:07;23.63;;;9.25;;
22191;SDS011;11261;52.456;10.850;2022-12-07T01:51:40;18.55;;;8.85;;
22191;SDS011;11261;52.456;10.850;2022-12-07T01:54:10;6.63;;;2.35;;
22191;SDS011;11261;52.456;10.850;2022-12-07T01:56:40;28.83;;;13.98;;
22191;SDS011;11261;52.456;10.850;2022-12-07T01:59:14;13.98;;;6.65;;
22191;SDS011;11261;52.456;10.850;2022-12-07T02:01:45;10.02;;;5.20;;
22191;SDS011;11261;52.456;10.850;2022-12-07T02:04:13;17.98;;;7.50;;
22191;SDS011;11261;52.456;10.850;2022-12-07T02:06:42;11.63;;;6.30;;
22191;SDS011;11261;52.456;10.850;2022-12-07T02:09:11;35.33;;;8.23;;
22191;SDS011;11261;52.456;10.850;2022-12-07T02:11:40;12.88;;;7.57;;
22191;SDS011;11261;52.456;10.850;2022-12-07T02:14:08;22.15;;;10.80;;
22191;SDS011;11261;52.456;10.850;2022-12-07T02:16:38;24.08;;;10.73;;
22191;SDS011;11261;52.456;10.850;2022-12-07T02:22:39;16.00;;;7.15;;
22191;SDS011;11261;52.456;10.850;2022-12-07T02:25:33;20.70;;;10.55;;
22191;SDS011;11261;52.456;10.850;2022-12-07T02:28:17;25.17;;;10.93;;
22191;SDS011;11261;52.456;10.850;2022-12-07T02:30:55;6.93;;;3.85;;
22191;SDS011;11261;52.456;10.850;2022-12-07T02:33:31;24.88;;;10.93;;
22191;SDS011;11261;52.456;10.850;2022-12-07T02:36:04;11.48;;;6.10;;
22191;SDS011;11261;52.456;10.850;2022-12-07T02:38:38;21.00;;;11.48;;
22191;SDS011;11261;52.456;10.850;2022-12-07T02:41:13;18.48;;;8.70;;
22191;SDS011;11261;52.456;10.850;2022-12-07T02:43:47;17.73;;;8.57;;
22191;SDS011;11261;52.456;10.850;2022-12-07T02:46:22;4.22;;;2.20;;
22191;SDS011;11261;52.456;10.850;2022-12-07T02:48:53;17.80;;;7.53;;
22191;SDS011;11261;52.456;10.850;2022-12-07T02:51:22;18.02;;;10.02;;
22191;SDS011;11261;52.456;10.850;2022-12-07T02:53:50;20.30;;;9.15;;
22191;SDS011;11261;52.456;10.850;2022-12-07T02:56:20;15.35;;;9.23;;
22191;SDS011;11261;52.456;10.850;2022-12-07T02:58:58;28.15;;;12.55;;
22191;SDS011;11261;52.456;10.850;2022-12-07T03:01:37;24.25;;;10.88;;
22191;SDS011;11261;52.456;10.850;2022-12-07T03:04:16;19.85;;;9.80;;
22191;SDS011;11261;52.456;10.850;2022-12-07T03:06:59;23.98;;;10.88;;
22191;SDS011;11261;52.456;10.850;2022-12-07T03:09:33;23.73;;;12.57;;
22191;SDS011;11261;52.456;10.850;2022-12-07T03:12:09;23.48;;;12.38;;
22191;SDS011;11261;52.456;10.850;2022-12-07T03:14:41;21.45;;;11.27;;
22191;SDS011;11261;52.456;10.850;2022-12-07T03:17:15;23.38;;;11.02;;
22191;SDS011;11261;52.456;10.850;2022-12-07T03:19:48;27.90;;;12.05;;
22191;SDS011;11261;52.456;10.850;2022-12-07T03:22:20;24.17;;;11.05;;
22191;SDS011;11261;52.456;10.850;2022-12-07T03:24:52;27.05;;;11.75;;
22191;SDS011;11261;52.456;10.850;2022-12-07T03:27:24;30.67;;;10.68;;
22191;SDS011;11261;52.456;10.850;2022-12-07T03:29:56;23.90;;;11.52;;
22191;SDS011;11261;52.456;10.850;2022-12-07T03:32:30;23.20;;;9.13;;
22191;SDS011;11261;52.456;10.850;2022-12-07T03:35:03;20.98;;;9.10;;
22191;SDS011;11261;52.456;10.850;2022-12-07T03:37:36;23.33;;;10.90;;
22191;SDS011;11261;52.456;10.850;2022-12-07T03:40:11;18.85;;;9.95;;
22191;SDS011;11261;52.456;10.850;2022-12-07T03:42:43;23.05;;;10.40;;
22191;SDS011;11261;52.456;10.850;2022-12-07T03:45:12;22.45;;;9.30;;
22191;SDS011;11261;52.456;10.850;2022-12-07T03:47:45;22.75;;;10.93;;
22191;SDS011;11261;52.456;10.850;2022-12-07T03:50:19;18.80;;;10.00;;
22191;SDS011;11261;52.456;10.850;2022-12-07T03:52:52;23.05;;;9.23;;
22191;SDS011;11261;52.456;10.850;2022-12-07T03:55:24;22.02;;;9.05;;
22191;SDS011;11261;52.456;10.850;2022-12-07T03:57:58;18.20;;;9.77;;
22191;SDS011;11261;52.456;10.850;2022-12-07T04:00:29;21.92;;;9.93;;
22191;SDS011;11261;52.456;10.850;2022-12-07T04:02:59;14.00;;;7.65;;
22191;SDS011;11261;52.456;10.850;2022-12-07T04:05:27;20.02;;;8.15;;
22191;SDS011;11261;52.456;10.850;2022-12-07T04:07:56;16.02;;;8.15;;
22191;SDS011;11261;52.456;10.850;2022-12-07T04:10:24;15.73;;;7.53;;
22191;SDS011;11261;52.456;10.850;2022-12-07T04:12:52;16.92;;;8.45;;
22191;SDS011;11261;52.456;10.850;2022-12-07T04:15:20;17.55;;;8.38;;
22191;SDS011;11261;52.456;10.850;2022-12-07T04:17:48;8.30;;;4.43;;
22191;SDS011;11261;52.456;10.850;2022-12-07T04:20:18;10.48;;;5.53;;
22191;SDS011;11261;52.456;10.850;2022-12-07T04:22:46;12.18;;;6.47;;
22191;SDS011;11261;52.456;10.850;2022-12-07T04:25:14;5.28;;;2.95;;
22191;SDS011;11261;52.456;10.850;2022-12-07T04:27:43;11.00;;;6.68;;
22191;SDS011;11261;52.456;10.850;2022-12-07T04:30:11;13.50;;;6.38;;
22191;SDS011;11261;52.456;10.850;2022-12-07T04:32:39;11.05;;;5.20;;
22191;SDS011;11261;52.456;10.850;2022-12-07T04:35:08;13.55;;;6.40;;
22191;SDS011;11261;52.456;10.850;2022-12-07T04:37:37;9.80;;;5.55;;
22191;SDS011;11261;52.456;10.850;2022-12-07T04:40:06;10.75;;;5.43;;
22191;SDS011;11261;52.456;10.850;2022-12-07T04:42:37;8.77;;;5.20;;
22191;SDS011;11261;52.456;10.850;2022-12-07T04:45:06;10.48;;;4.82;;
22191;SDS011;11261;52.456;10.850;2022-12-07T04:47:35;9.00;;;5.20;;
22191;SDS011;11261;52.456;10.850;2022-12-07T04:50:04;9.93;;;5.30;;
22191;SDS011;11261;52.456;10.850;2022-12-07T04:52:33;12.85;;;5.75;;
22191;SDS011;11261;52.456;10.850;2022-12-07T04:55:02;9.18;;;4.93;;
22191;SDS011;11261;52.456;10.850;2022-12-07T04:57:30;9.20;;;5.28;;
22191;SDS011;11261;52.456;10.850;2022-12-07T04:59:58;5.68;;;2.92;;
22191;SDS011;11261;52.456;10.850;2022-12-07T05:02:28;10.40;;;5.45;;
22191;SDS011;11261;52.456;10.850;2022-12-07T05:04:56;11.18;;;5.43;;
22191;SDS011;11261;52.456;10.850;2022-12-07T05:07:24;10.23;;;4.53;;
22191;SDS011;11261;52.456;10.850;2022-12-07T05:09:52;13.82;;;5.15;;
22191;SDS011;11261;52.456;10.850;2022-12-07T05:12:22;9.23;;;4.25;;
22191;SDS011;11261;52.456;10.850;2022-12-07T05:14:50;10.07;;;5.00;;
22191;SDS011;11261;52.456;10.850;2022-12-07T05:17:18;11.85;;;5.88;;
22191;SDS011;11261;52.456;10.850;2022-12-07T05:19:47;8.70;;;4.07;;
22191;SDS011;11261;52.456;10.850;2022-12-07T05:22:15;9.45;;;4.68;;
22191;SDS011;11261;52.456;10.850;2022-12-07T05:24:44;12.05;;;5.70;;
22191;SDS011;11261;52.456;10.850;2022-12-07T05:27:12;6.15;;;3.63;;
22191;SDS011;11261;52.456;10.850;2022-12-07T05:29:41;9.82;;;5.18;;
22191;SDS011;11261;52.456;10.850;2022-12-07T05:32:09;8.70;;;4.30;;
22191;SDS011;11261;52.456;10.850;2022-12-07T05:34:37;5.90;;;3.83;;
22191;SDS011;11261;52.456;10.850;2022-12-07T05:37:06;11.10;;;5.57;;
22191;SDS011;11261;52.456;10.850;2022-12-07T05:39:34;7.70;;;4.28;;
22191;SDS011;11261;52.456;10.850;2022-12-07T05:42:04;7.78;;;4.18;;
22191;SDS011;11261;52.456;10.850;2022-12-07T05:44:43;7.28;;;3.28;;
22191;SDS011;11261;52.456;10.850;2022-12-07T05:47:13;12.43;;;4.82;;
22191;SDS011;11261;52.456;10.850;2022-12-07T05:49:42;10.85;;;3.97;;
22191;SDS011;11261;52.456;10.850;2022-12-07T05:52:10;8.60;;;4.85;;
22191;SDS011;11261;52.456;10.850;2022-12-07T05:54:38;10.88;;;4.30;;
22191;SDS011;11261;52.456;10.850;2022-12-07T05:57:06;11.20;;;5.47;;
22191;SDS011;11261;52.456;10.850;2022-12-07T05:59:35;8.15;;;4.57;;
22191;SDS011;11261;52.456;10.850;2022-12-07T06:02:04;9.45;;;4.45;;
22191;SDS011;11261;52.456;10.850;2022-12-07T06:04:35;7.80;;;3.85;;
22191;SDS011;11261;52.456;10.850;2022-12-07T06:07:05;10.13;;;5.07;;
22191;SDS011;11261;52.456;10.850;2022-12-07T06:09:34;8.85;;;4.10;;
22191;SDS011;11261;52.456;10.850;2022-12-07T06:12:02;8.65;;;4.63;;
22191;SDS011;11261;52.456;10.850;2022-12-07T06:14:49;11.85;;;4.82;;
22191;SDS011;11261;52.456;10.850;2022-12-07T06:17:19;8.38;;;4.70;;
22191;SDS011;11261;52.456;10.850;2022-12-07T06:19:47;10.25;;;4.10;;
22191;SDS011;11261;52.456;10.850;2022-12-07T06:22:15;9.90;;;4.38;;
22191;SDS011;11261;52.456;10.850;2022-12-07T06:24:43;11.10;;;5.07;;
22191;SDS011;11261;52.456;10.850;2022-12-07T06:27:12;12.02;;;5.13;;
22191;SDS011;11261;52.456;10.850;2022-12-07T06:29:40;10.18;;;5.45;;
22191;SDS011;11261;52.456;10.850;2022-12-07T06:32:08;7.28;;;4.78;;
22191;SDS011;11261;52.456;10.850;2022-12-07T06:34:39;10.15;;;4.45;;
22191;SDS011;11261;52.456;10.850;2022-12-07T06:37:07;7.05;;;4.22;;
22191;SDS011;11261;52.456;10.850;2022-12-07T06:39:35;7.53;;;4.38;;
22191;SDS011;11261;52.456;10.850;2022-12-07T06:42:04;11.15;;;5.28;;
22191;SDS011;11261;52.456;10.850;2022-12-07T06:44:32;9.02;;;4.93;;
22191;SDS011;11261;52.456;10.850;2022-12-07T06:47:01;9.43;;;4.95;;
22191;SDS011;11261;52.456;10.850;2022-12-07T06:49:51;11.35;;;4.35;;
22191;SDS011;11261;52.456;10.850;2022-12-07T06:52:19;9.77;;;4.97;;
22191;SDS011;11261;52.456;10.850;2022-12-07T06:54:47;7.97;;;4.50;;
22191;SDS011;11261;52.456;10.850;2022-12-07T06:57:15;9.75;;;4.90;;
22191;SDS011;11261;52.456;10.850;2022-12-07T06:59:43;9.00;;;3.90;;
22191;SDS011;11261;52.456;10.850;2022-12-07T07:02:11;9.63;;;4.57;;
22191;SDS011;11261;52.456;10.850;2022-12-07T07:04:39;6.43;;;3.63;;
22191;SDS011;11261;52.456;10.850;2022-12-07T07:07:08;9.00;;;4.57;;
22191;SDS011;11261;52.456;10.850;2022-12-07T07:09:37;7.22;;;3.95;;
22191;SDS011;11261;52.456;10.850;2022-12-07T07:12:05;7.10;;;3.70;;
22191;SDS011;11261;52.456;10.850;2022-12-07T07:14:33;10.48;;;3.97;;
22191;SDS011;11261;52.456;10.850;2022-12-07T07:17:02;7.28;;;4.22;;
22191;SDS011;11261;52.456;10.850;2022-12-07T07:19:30;8.75;;;3.70;;
22191;SDS011;11261;52.456;10.850;2022-12-07T07:21:58;9.80;;;4.50;;
22191;SDS011;11261;52.456;10.850;2022-12-07T07:24:28;11.13;;;4.15;;
22191;SDS011;11261;52.456;10.850;2022-12-07T07:26:56;8.57;;;3.78;;
22191;SDS011;11261;52.456;10.850;2022-12-07T07:29:24;7.38;;;4.13;;
22191;SDS011;11261;52.456;10.850;2022-12-07T07:31:52;8.93;;;3.55;;
22191;SDS011;11261;52.456;10.850;2022-12-07T07:34:20;8.38;;;3.70;;
22191;SDS011;11261;52.456;10.850;2022-12-07T07:36:48;7.13;;;3.25;;
22191;SDS011;11261;52.456;10.850;2022-12-07T07:39:16;7.75;;;3.20;;
22191;SDS011;11261;52.456;10.850;2022-12-07T07:41:46;11.50;;;3.63;;
22191;SDS011;11261;52.456;10.850;2022-12-07T07:44:14;4.60;;;2.60;;
22191;SDS011;11261;52.456;10.850;2022-12-07T07:46:42;5.28;;;3.30;;
22191;SDS011;11261;52.456;10.850;2022-12-07T07:49:10;4.72;;;3.28;;
22191;SDS011;11261;52.456;10.850;2022-12-07T07:51:38;5.18;;;2.15;;
22191;SDS011;11261;52.456;10.850;2022-12-07T07:54:06;4.30;;;2.92;;
22191;SDS011;11261;52.456;10.850;2022-12-07T07:56:34;5.47;;;3.10;;
22191;SDS011;11261;52.456;10.850;2022-12-07T07:59:04;3.90;;;2.75;;
22191;SDS011;11261;52.456;10.850;2022-12-07T08:01:32;4.05;;;2.40;;
22191;SDS011;11261;52.456;10.850;2022-12-07T08:04:01;3.65;;;2.40;;
22191;SDS011;11261;52.456;10.850;2022-12-07T08:06:29;4.93;;;2.45;;
22191;SDS011;11261;52.456;10.850;2022-12-07T08:08:58;4.38;;;2.60;;
22191;SDS011;11261;52.456;10.850;2022-12-07T08:11:26;7.05;;;2.85;;
22191;SDS011;11261;52.456;10.850;2022-12-07T08:13:54;4.10;;;2.17;;
22191;SDS011;11261;52.456;10.850;2022-12-07T08:16:23;4.88;;;3.00;;
22191;SDS011;11261;52.456;10.850;2022-12-07T08:18:52;5.05;;;2.50;;
22191;SDS011;11261;52.456;10.850;2022-12-07T08:21:20;4.35;;;2.53;;
22191;SDS011;11261;52.456;10.850;2022-12-07T08:23:48;5.43;;;2.88;;
22191;SDS011;11261;52.456;10.850;2022-12-07T08:26:16;4.70;;;2.63;;
22191;SDS011;11261;52.456;10.850;2022-12-07T08:28:44;5.25;;;3.00;;
22191;SDS011;11261;52.456;10.850;2022-12-07T08:31:14;5.70;;;3.10;;
22191;SDS011;11261;52.456;10.850;2022-12-07T08:33:45;5.30;;;2.63;;
22191;SDS011;11261;52.456;10.850;2022-12-07T08:36:14;8.40;;;3.88;;
22191;SDS011;11261;52.456;10.850;2022-12-07T08:38:42;5.85;;;3.83;;
22191;SDS011;11261;52.456;10.850;2022-12-07T08:41:31;6.68;;;3.50;;
22191;SDS011;11261;52.456;10.850;2022-12-07T08:43:59;5.80;;;3.22;;
22191;SDS011;11261;52.456;10.850;2022-12-07T08:46:28;6.32;;;3.63;;
22191;SDS011;11261;52.456;10.850;2022-12-07T08:49:03;4.43;;;2.80;;
22191;SDS011;11261;52.456;10.850;2022-12-07T08:51:35;10.13;;;4.03;;
22191;SDS011;11261;52.456;10.850;2022-12-07T08:54:04;5.90;;;3.40;;
22191;SDS011;11261;52.456;10.850;2022-12-07T08:56:34;4.55;;;3.05;;
22191;SDS011;11261;52.456;10.850;2022-12-07T08:59:03;5.07;;;3.22;;
22191;SDS011;11261;52.456;10.850;2022-12-07T09:01:32;4.07;;;2.88;;
22191;SDS011;11261;52.456;10.850;2022-12-07T09:04:00;6.70;;;3.50;;
22191;SDS011;11261;52.456;10.850;2022-12-07T09:06:29;5.95;;;3.35;;
22191;SDS011;11261;52.456;10.850;2022-12-07T09:08:58;6.30;;;3.30;;
22191;SDS011;11261;52.456;10.850;2022-12-07T09:11:28;4.63;;;2.70;;
22191;SDS011;11261;52.456;10.850;2022-12-07T09:13:56;5.72;;;3.63;;
22191;SDS011;11261;52.456;10.850;2022-12-07T09:16:24;7.03;;;3.00;;
22191;SDS011;11261;52.456;10.850;2022-12-07T09:18:53;10.90;;;2.75;;
22191;SDS011;11261;52.456;10.850;2022-12-07T09:21:21;6.47;;;3.40;;
22191;SDS011;11261;52.456;10.850;2022-12-07T09:23:50;5.45;;;2.40;;
22191;SDS011;11261;52.456;10.850;2022-12-07T09:26:18;6.15;;;3.15;;
22191;SDS011;11261;52.456;10.850;2022-12-07T09:28:46;4.72;;;2.95;;
22191;SDS011;11261;52.456;10.850;2022-12-07T09:31:14;5.07;;;2.92;;
22191;SDS011;11261;52.456;10.850;2022-12-07T09:33:54;6.57;;;3.35;;
22191;SDS011;11261;52.456;10.850;2022-12-07T09:36:23;6.03;;;2.83;;
22191;SDS011;11261;52.456;10.850;2022-12-07T09:38:53;6.25;;;3.05;;
22191;SDS011;11261;52.456;10.850;2022-12-07T09:41:21;5.60;;;3.03;;
22191;SDS011;11261;52.456;10.850;2022-12-07T09:43:51;5.18;;;3.08;;
22191;SDS011;11261;52.456;10.850;2022-12-07T09:46:20;7.28;;;3.45;;
22191;SDS011;11261;52.456;10.850;2022-12-07T09:48:49;3.70;;;2.67;;
22191;SDS011;11261;52.456;10.850;2022-12-07T09:51:18;3.03;;;2.13;;
22191;SDS011;11261;52.456;10.850;2022-12-07T09:53:51;5.05;;;3.20;;
22191;SDS011;11261;52.456;10.850;2022-12-07T09:56:21;6.25;;;2.95;;
22191;SDS011;11261;52.456;10.850;2022-12-07T09:58:51;5.57;;;3.20;;
22191;SDS011;11261;52.456;10.850;2022-12-07T10:01:27;4.20;;;3.03;;
22191;SDS011;11261;52.456;10.850;2022-12-07T10:04:01;3.13;;;2.58;;
22191;SDS011;11261;52.456;10.850;2022-12-07T10:06:36;5.47;;;2.38;;
22191;SDS011;11261;52.456;10.850;2022-12-07T10:09:10;3.58;;;2.38;;
22191;SDS011;11261;52.456;10.850;2022-12-07T10:14:25;5.38;;;2.88;;
22191;SDS011;11261;52.456;10.850;2022-12-07T10:17:28;4.75;;;2.60;;
22191;SDS011;11261;52.456;10.850;2022-12-07T10:22:57;2.97;;;2.03;;
22191;SDS011;11261;52.456;10.850;2022-12-07T10:25:29;3.00;;;2.15;;
22191;SDS011;11261;52.456;10.850;2022-12-07T10:28:01;4.15;;;2.47;;
22191;SDS011;11261;52.456;10.850;2022-12-07T10:30:47;2.85;;;1.92;;
22191;SDS011;11261;52.456;10.850;2022-12-07T10:33:33;3.13;;;2.05;;
22191;SDS011;11261;52.456;10.850;2022-12-07T10:36:16;2.78;;;2.00;;
22191;SDS011;11261;52.456;10.850;2022-12-07T10:38:48;4.03;;;2.50;;
22191;SDS011;11261;52.456;10.850;2022-12-07T10:41:18;5.18;;;2.53;;
22191;SDS011;11261;52.456;10.850;2022-12-07T10:43:48;2.67;;;1.90;;
22191;SDS011;11261;52.456;10.850;2022-12-07T10:46:27;6.57;;;2.72;;
22191;SDS011;11261;52.456;10.850;2022-12-07T10:52:21;4.38;;;2.53;;
22191;SDS011;11261;52.456;10.850;2022-12-07T10:55:08;2.65;;;1.65;;
22191;SDS011;11261;52.456;10.850;2022-12-07T10:57:55;4.03;;;2.08;;
22191;SDS011;11261;52.456;10.850;2022-12-07T11:00:32;3.65;;;2.38;;
22191;SDS011;11261;52.456;10.850;2022-12-07T11:06:04;1.67;;;1.17;;
22191;SDS011;11261;52.456;10.850;2022-12-07T11:08:45;3.00;;;2.33;;
22191;SDS011;11261;52.456;10.850;2022-12-07T11:11:26;4.97;;;2.13;;
22191;SDS011;11261;52.456;10.850;2022-12-07T11:14:03;2.72;;;1.67;;
22191;SDS011;11261;52.456;10.850;2022-12-07T11:16:42;5.38;;;2.85;;
22191;SDS011;11261;52.456;10.850;2022-12-07T11:19:28;3.67;;;1.50;;
22191;SDS011;11261;52.456;10.850;2022-12-07T11:22:09;3.28;;;2.10;;
22191;SDS011;11261;52.456;10.850;2022-12-07T11:24:45;4.18;;;2.13;;
22191;SDS011;11261;52.456;10.850;2022-12-07T11:27:21;3.75;;;2.00;;
22191;SDS011;11261;52.456;10.850;2022-12-07T11:30:00;4.28;;;2.47;;
22191;SDS011;11261;52.456;10.850;2022-12-07T11:32:44;5.25;;;2.10;;
22191;SDS011;11261;52.456;10.850;2022-12-07T11:35:31;4.70;;;2.03;;
22191;SDS011;11261;52.456;10.850;2022-12-07T11:38:07;4.38;;;2.00;;
22191;SDS011;11261;52.456;10.850;2022-12-07T11:40:41;3.88;;;1.67;;
22191;SDS011;11261;52.456;10.850;2022-12-07T11:43:15;4.22;;;1.70;;
22191;SDS011;11261;52.456;10.850;2022-12-07T11:45:52;4.45;;;1.63;;
22191;SDS011;11261;52.456;10.850;2022-12-07T11:48:29;2.53;;;1.73;;
22191;SDS011;11261;52.456;10.850;2022-12-07T11:51:02;4.90;;;1.95;;
22191;SDS011;11261;52.456;10.850;2022-12-07T11:53:32;4.47;;;2.00;;
22191;SDS011;11261;52.456;10.850;2022-12-07T11:56:08;2.58;;;1.88;;
22191;SDS011;11261;52.456;10.850;2022-12-07T11:58:44;2.40;;;1.60;;
22191;SDS011;11261;52.456;10.850;2022-12-07T12:01:22;2.42;;;1.42;;
22191;SDS011;11261;52.456;10.850;2022-12-07T12:04:01;2.47;;;1.75;;
22191;SDS011;11261;52.456;10.850;2022-12-07T12:06:34;1.48;;;1.35;;
22191;SDS011;11261;52.456;10.850;2022-12-07T12:09:04;2.10;;;1.50;;
22191;SDS011;11261;52.456;10.850;2022-12-07T12:12:19;3.42;;;1.58;;
22191;SDS011;11261;52.456;10.850;2022-12-07T12:15:26;2.95;;;1.50;;
22191;SDS011;11261;52.456;10.850;2022-12-07T12:21:01;2.05;;;1.35;;
22191;SDS011;11261;52.456;10.850;2022-12-07T12:23:35;2.60;;;1.20;;
22191;SDS011;11261;52.456;10.850;2022-12-07T12:26:08;3.63;;;1.35;;
22191;SDS011;11261;52.456;10.850;2022-12-07T12:28:49;1.17;;;1.05;;
22191;SDS011;11261;52.456;10.850;2022-12-07T12:31:35;2.08;;;1.48;;
22191;SDS011;11261;52.456;10.850;2022-12-07T12:37:00;2.20;;;1.10;;
22191;SDS011;11261;52.456;10.850;2022-12-07T12:39:29;4.28;;;1.23;;
22191;SDS011;11261;52.456;10.850;2022-12-07T12:41:57;1.83;;;1.30;;
22191;SDS011;11261;52.456;10.850;2022-12-07T12:44:41;2.25;;;1.10;;
22191;SDS011;11261;52.456;10.850;2022-12-07T12:50:33;4.38;;;1.73;;
22191;SDS011;11261;52.456;10.850;2022-12-07T12:53:03;1.90;;;0.65;;
22191;SDS011;11261;52.456;10.850;2022-12-07T12:58:40;3.15;;;1.38;;
22191;SDS011;11261;52.456;10.850;2022-12-07T13:04:21;3.70;;;1.35;;
22191;SDS011;11261;52.456;10.850;2022-12-07T13:07:13;3.97;;;1.50;;
22191;SDS011;11261;52.456;10.850;2022-12-07T13:10:25;2.53;;;1.05;;
22191;SDS011;11261;52.456;10.850;2022-12-07T13:13:30;5.00;;;1.50;;
22191;SDS011;11261;52.456;10.850;2022-12-07T13:22:50;5.55;;;1.10;;
22191;SDS011;11261;52.456;10.850;2022-12-07T13:25:21;4.47;;;1.00;;
22191;SDS011;11261;52.456;10.850;2022-12-07T13:27:57;1.30;;;1.10;;
22191;SDS011;11261;52.456;10.850;2022-12-07T13:30:29;1.13;;;0.98;;
22191;SDS011;11261;52.456;10.850;2022-12-07T13:32:58;2.45;;;1.10;;
22191;SDS011;11261;52.456;10.850;2022-12-07T13:35:30;1.80;;;1.17;;
22191;SDS011;11261;52.456;10.850;2022-12-07T13:38:04;2.30;;;1.35;;
22191;SDS011;11261;52.456;10.850;2022-12-07T13:40:33;2.53;;;1.10;;
22191;SDS011;11261;52.456;10.850;2022-12-07T13:43:02;3.08;;;1.13;;
22191;SDS011;11261;52.456;10.850;2022-12-07T13:45:33;1.08;;;0.98;;
22191;SDS011;11261;52.456;10.850;2022-12-07T13:48:19;1.88;;;1.00;;
22191;SDS011;11261;52.456;10.850;2022-12-07T13:50:53;1.08;;;0.90;;
22191;SDS011;11261;52.456;10.850;2022-12-07T13:53:24;3.72;;;1.25;;
22191;SDS011;11261;52.456;10.850;2022-12-07T13:55:54;5.20;;;1.00;;
22191;SDS011;11261;52.456;10.850;2022-12-07T13:58:23;2.53;;;1.08;;
22191;SDS011;11261;52.456;10.850;2022-12-07T14:00:52;2.03;;;1.05;;
22191;SDS011;11261;52.456;10.850;2022-12-07T14:03:23;3.88;;;0.80;;
22191;SDS011;11261;52.456;10.850;2022-12-07T14:06:06;0.82;;;0.77;;
22191;SDS011;11261;52.456;10.850;2022-12-07T14:08:43;1.65;;;0.88;;
22191;SDS011;11261;52.456;10.850;2022-12-07T14:11:13;3.90;;;1.30;;
22191;SDS011;11261;52.456;10.850;2022-12-07T14:13:45;3.38;;;1.08;;
22191;SDS011;11261;52.456;10.850;2022-12-07T14:16:24;2.20;;;1.02;;
22191;SDS011;11261;52.456;10.850;2022-12-07T14:18:55;1.33;;;1.13;;
22191;SDS011;11261;52.456;10.850;2022-12-07T14:21:25;2.33;;;1.15;;
22191;SDS011;11261;52.456;10.850;2022-12-07T14:26:47;2.25;;;1.08;;
22191;SDS011;11261;52.456;10.850;2022-12-07T14:32:14;1.58;;;1.10;;
22191;SDS011;11261;52.456;10.850;2022-12-07T14:34:54;1.90;;;1.02;;
22191;SDS011;11261;52.456;10.850;2022-12-07T14:37:23;4.28;;;1.38;;
22191;SDS011;11261;52.456;10.850;2022-12-07T14:39:53;4.30;;;1.38;;
22191;SDS011;11261;52.456;10.850;2022-12-07T14:42:21;2.20;;;0.98;;
22191;SDS011;11261;52.456;10.850;2022-12-07T14:44:52;2.45;;;0.90;;
22191;SDS011;11261;52.456;10.850;2022-12-07T14:47:20;2.20;;;1.00;;
22191;SDS011;11261;52.456;10.850;2022-12-07T14:50:10;2.10;;;1.13;;
22191;SDS011;11261;52.456;10.850;2022-12-07T14:52:40;2.85;;;1.00;;
22191;SDS011;11261;52.456;10.850;2022-12-07T14:55:31;3.15;;;1.38;;
22191;SDS011;11261;52.456;10.850;2022-12-07T14:57:59;4.65;;;1.30;;
22191;SDS011;11261;52.456;10.850;2022-12-07T15:00:28;2.88;;;1.13;;
22191;SDS011;11261;52.456;10.850;2022-12-07T15:02:56;4.13;;;0.95;;
22191;SDS011;11261;52.456;10.850;2022-12-07T15:05:25;0.95;;;0.73;;
22191;SDS011;11261;52.456;10.850;2022-12-07T15:07:53;1.30;;;0.70;;
22191;SDS011;11261;52.456;10.850;2022-12-07T15:10:22;3.17;;;1.02;;
22191;SDS011;11261;52.456;10.850;2022-12-07T15:12:57;2.30;;;0.80;;
22191;SDS011;11261;52.456;10.850;2022-12-07T15:15:47;0.93;;;0.50;;
22191;SDS011;11261;52.456;10.850;2022-12-07T15:18:15;3.20;;;0.68;;
22191;SDS011;11261;52.456;10.850;2022-12-07T15:20:44;2.17;;;0.75;;
22191;SDS011;11261;52.456;10.850;2022-12-07T15:23:12;2.88;;;0.50;;
22191;SDS011;11261;52.456;10.850;2022-12-07T15:25:40;0.98;;;0.60;;
22191;SDS011;11261;52.456;10.850;2022-12-07T15:28:10;1.75;;;0.50;;
22191;SDS011;11261;52.456;10.850;2022-12-07T15:30:39;2.95;;;0.60;;
22191;SDS011;11261;52.456;10.850;2022-12-07T15:33:09;0.40;;;0.40;;
22191;SDS011;11261;52.456;10.850;2022-12-07T15:35:38;1.25;;;0.63;;
22191;SDS011;11261;52.456;10.850;2022-12-07T15:38:06;0.45;;;0.43;;
22191;SDS011;11261;52.456;10.850;2022-12-07T15:40:34;2.47;;;0.80;;
22191;SDS011;11261;52.456;10.850;2022-12-07T15:43:03;2.50;;;0.98;;